Terminal Aerodrome Forecast
Issued by NWS Los Angeles, CA

Home | Current Version | Previous Version | Text Only | Print | Product List | Glossary On
Versions: 1 2 3 4 5 6 7 8 9 10 11 12 13 14 15 16 17 18 19 20 21 22 23 24 25 26 27 28 29 30 31
000
FTUS46 KLOX 201600 AAE
TAFSMX
TAF AMD
KSMX 201611Z 2016/2112 VRB03KT P6SM FEW002
     FM201800 32006KT P6SM SKC
     FM202100 30012KT P6SM SKC
     FM210400 VRB05KT P6SM SKC=

USA.gov is the U.S. government's official web portal to all federal, state and local government web resources and services.